createdAt,value
2018-03-30T00:02:24.499Z,10.25
2018-03-30T00:04:53.059Z,10.32
2018-03-30T00:07:20.876Z,10.26
2018-03-30T00:09:56.340Z,10.31
2018-03-30T00:12:24.822Z,10.11
2018-03-30T00:14:53.357Z,10.14
2018-03-30T00:17:20.972Z,10.44
2018-03-30T00:19:48.992Z,10.14
2018-03-30T00:22:16.398Z,10.38
2018-03-30T00:24:43.800Z,10.31
2018-03-30T00:27:11.207Z,10.35
2018-03-30T00:29:38.589Z,10.31
2018-03-30T00:32:05.972Z,10.21
2018-03-30T00:34:33.586Z,10.40
2018-03-30T00:37:01.197Z,10.43
2018-03-30T00:39:28.639Z,10.24
2018-03-30T00:41:56.043Z,10.35
2018-03-30T00:44:23.444Z,10.19
2018-03-30T00:46:50.864Z,9.91
2018-03-30T00:49:19.142Z,10.04
2018-03-30T00:51:46.546Z,9.91
2018-03-30T00:54:13.941Z,9.97
2018-03-30T00:56:41.340Z,10.12
2018-03-30T00:59:08.766Z,10.29
2018-03-30T01:01:36.203Z,10.30
2018-03-30T01:04:03.623Z,9.85
2018-03-30T01:06:31.018Z,10.14
2018-03-30T01:08:58.407Z,9.69
2018-03-30T01:11:26.222Z,9.68
2018-03-30T01:13:54.633Z,9.99
2018-03-30T01:16:22.029Z,9.90
2018-03-30T01:18:49.429Z,9.98
2018-03-30T01:21:16.833Z,9.99
2018-03-30T01:23:44.901Z,9.89
2018-03-30T01:26:12.310Z,9.75
2018-03-30T01:28:39.694Z,9.85
2018-03-30T01:31:07.122Z,9.95
2018-03-30T01:33:34.954Z,9.89
2018-03-30T01:36:02.342Z,9.63
2018-03-30T01:38:29.773Z,9.67
2018-03-30T01:40:58.279Z,9.65
2018-03-30T01:43:25.666Z,9.58
2018-03-30T01:45:53.081Z,9.66
2018-03-30T01:48:20.466Z,9.68
2018-03-30T01:50:47.859Z,9.66
2018-03-30T01:53:15.298Z,9.43
2018-03-30T01:55:42.755Z,9.44
2018-03-30T01:58:10.497Z,9.32
2018-03-30T02:00:37.889Z,9.50
2018-03-30T02:03:05.293Z,9.99
2018-03-30T02:05:32.666Z,9.78
2018-03-30T02:08:00.252Z,9.65
2018-03-30T02:10:27.709Z,9.95
2018-03-30T02:12:55.095Z,9.72
2018-03-30T02:15:22.656Z,9.44
2018-03-30T02:17:50.115Z,9.48
2018-03-30T02:20:17.507Z,9.46
2018-03-30T02:22:45.254Z,9.42
2018-03-30T02:25:12.695Z,9.55
2018-03-30T02:27:40.081Z,9.84
2018-03-30T02:30:07.466Z,9.45
2018-03-30T02:32:34.878Z,9.39
2018-03-30T02:35:02.345Z,9.63
2018-03-30T02:37:29.772Z,9.64
2018-03-30T02:39:57.158Z,9.83
2018-03-30T02:42:25.206Z,9.37
2018-03-30T02:44:52.662Z,9.44
2018-03-30T02:47:20.080Z,9.65
2018-03-30T02:49:47.732Z,9.35
2018-03-30T02:52:15.232Z,9.36
2018-03-30T02:54:42.787Z,9.35
2018-03-30T02:57:11.903Z,9.66
2018-03-30T02:59:39.299Z,9.34
2018-03-30T03:02:06.717Z,9.13
2018-03-30T03:04:34.389Z,9.12
2018-03-30T03:07:01.817Z,9.36
2018-03-30T03:09:29.411Z,9.25
2018-03-30T03:11:56.832Z,9.29
2018-03-30T03:14:24.233Z,9.61
2018-03-30T03:16:51.682Z,9.02
2018-03-30T03:19:19.073Z,9.28
2018-03-30T03:21:46.578Z,9.14
2018-03-30T03:24:14.337Z,9.21
2018-03-30T03:26:41.771Z,9.09
2018-03-30T03:29:09.175Z,9.21
2018-03-30T03:31:36.778Z,9.45
2018-03-30T03:34:04.177Z,9.39
2018-03-30T03:36:31.543Z,9.33
2018-03-30T03:38:58.966Z,9.25
2018-03-30T03:41:26.348Z,9.33
2018-03-30T03:43:54.764Z,9.11
2018-03-30T03:46:22.141Z,9.06
2018-03-30T03:48:49.531Z,8.95
2018-03-30T03:51:17.033Z,8.73
2018-03-30T03:53:44.622Z,9.02
2018-03-30T03:56:12.153Z,8.97
2018-03-30T03:58:39.830Z,8.98
2018-03-30T04:01:07.412Z,9.03
2018-03-30T04:03:34.774Z,8.99
2018-03-30T04:06:02.181Z,8.93
2018-03-30T04:08:29.650Z,9.02
2018-03-30T04:10:57.248Z,9.18
2018-03-30T04:13:24.797Z,8.82
2018-03-30T04:15:52.338Z,8.86
2018-03-30T04:18:19.742Z,8.46
2018-03-30T04:20:47.315Z,8.53
2018-03-30T04:23:14.701Z,8.50
2018-03-30T04:25:42.083Z,8.57
2018-03-30T04:28:12.557Z,8.75
2018-03-30T04:30:40.087Z,8.87
2018-03-30T04:33:07.478Z,8.93
2018-03-30T04:35:34.874Z,9.02
2018-03-30T04:38:02.274Z,9.28
2018-03-30T04:40:29.677Z,9.18
2018-03-30T04:42:57.048Z,8.87
2018-03-30T04:45:24.442Z,8.53
2018-03-30T04:47:51.863Z,8.68
2018-03-30T04:50:19.251Z,8.74
2018-03-30T04:52:46.669Z,8.66
2018-03-30T04:55:14.741Z,8.85
2018-03-30T04:57:42.125Z,8.97
2018-03-30T05:00:09.525Z,8.72
2018-03-30T05:02:36.909Z,8.51
2018-03-30T05:05:04.334Z,8.40
2018-03-30T05:07:31.704Z,8.61
2018-03-30T05:09:59.117Z,8.38
2018-03-30T05:12:26.510Z,8.64
2018-03-30T05:14:53.884Z,8.66
2018-03-30T05:17:21.296Z,8.39
2018-03-30T05:19:48.940Z,8.64
2018-03-30T05:22:16.329Z,8.80
2018-03-30T05:24:44.776Z,8.49
2018-03-30T05:27:12.145Z,7.96
2018-03-30T05:29:39.558Z,8.43
2018-03-30T05:32:06.963Z,8.79
2018-03-30T05:34:34.371Z,8.56
2018-03-30T05:37:01.925Z,8.52
2018-03-30T05:39:29.330Z,8.54
2018-03-30T05:41:56.754Z,8.43
2018-03-30T05:44:24.174Z,8.23
2018-03-30T05:46:51.614Z,8.68
2018-03-30T05:49:19.013Z,8.42
2018-03-30T05:51:46.393Z,8.74
2018-03-30T05:54:14.620Z,8.70
2018-03-30T05:56:42.612Z,8.67
2018-03-30T05:59:10.048Z,8.85
2018-03-30T06:01:37.931Z,9.15
2018-03-30T06:04:05.300Z,8.97
2018-03-30T06:06:32.768Z,9.01
2018-03-30T06:09:00.157Z,8.85
2018-03-30T06:11:27.597Z,8.88
2018-03-30T06:13:54.973Z,9.06
2018-03-30T06:16:23.750Z,9.47
2018-03-30T06:18:51.149Z,9.72
2018-03-30T06:21:18.563Z,9.26
2018-03-30T06:23:45.942Z,9.45
2018-03-30T06:26:13.422Z,9.60
2018-03-30T06:28:40.832Z,9.45
2018-03-30T06:31:08.238Z,9.40
2018-03-30T06:33:35.623Z,9.46
2018-03-30T06:36:02.994Z,9.33
2018-03-30T06:38:30.380Z,9.18
2018-03-30T06:40:57.788Z,9.14
2018-03-30T06:43:25.193Z,9.05
2018-03-30T06:45:52.584Z,9.12
2018-03-30T06:48:20.700Z,8.90
2018-03-30T06:50:48.093Z,9.03
2018-03-30T06:53:15.518Z,9.29
2018-03-30T06:55:43.262Z,9.25
2018-03-30T06:58:10.747Z,9.48
2018-03-30T07:00:38.120Z,9.40
2018-03-30T07:03:05.510Z,9.11
2018-03-30T07:05:32.900Z,9.45
2018-03-30T07:08:00.773Z,9.47
2018-03-30T07:10:28.153Z,9.44
2018-03-30T07:12:55.568Z,9.42
2018-03-30T07:15:22.952Z,9.58
2018-03-30T07:17:50.338Z,9.64
2018-03-30T07:20:17.747Z,9.65
2018-03-30T07:22:46.297Z,9.65
2018-03-30T07:25:13.685Z,9.57
2018-03-30T07:27:41.068Z,9.83
2018-03-30T07:30:08.460Z,9.88
2018-03-30T07:32:35.859Z,10.11
2018-03-30T07:35:03.425Z,9.95
2018-03-30T07:37:30.823Z,9.86
2018-03-30T07:39:58.274Z,10.04
2018-03-30T07:42:25.709Z,10.23
2018-03-30T07:44:53.124Z,10.31
2018-03-30T07:47:20.537Z,10.44
2018-03-30T07:49:47.957Z,10.28
2018-03-30T07:52:15.674Z,10.44
2018-03-30T07:54:43.229Z,10.48
2018-03-30T07:57:10.648Z,10.58
2018-03-30T07:59:38.052Z,10.70
2018-03-30T08:02:05.437Z,10.83
2018-03-30T08:04:32.843Z,10.79
2018-03-30T08:07:00.229Z,10.74
2018-03-30T08:09:27.616Z,10.77
2018-03-30T08:11:57.101Z,10.68
2018-03-30T08:14:25.249Z,10.82
2018-03-30T08:16:52.672Z,10.96
2018-03-30T08:19:20.058Z,11.19
2018-03-30T08:21:47.449Z,11.38
2018-03-30T08:24:15.571Z,11.32
2018-03-30T08:26:42.970Z,11.55
2018-03-30T08:29:10.348Z,11.72
2018-03-30T08:31:37.754Z,11.72
2018-03-30T08:34:05.121Z,11.69
2018-03-30T08:36:32.545Z,11.67
2018-03-30T08:39:00.422Z,11.93
2018-03-30T08:41:27.962Z,12.05
2018-03-30T08:43:55.389Z,12.15
2018-03-30T08:46:23.734Z,12.42
2018-03-30T08:48:51.114Z,12.37
2018-03-30T08:51:18.524Z,12.44
2018-03-30T08:53:45.917Z,12.58
2018-03-30T08:56:13.350Z,12.76
2018-03-30T08:58:41.082Z,12.83
2018-03-30T09:01:08.473Z,12.85
2018-03-30T09:03:35.972Z,13.03
2018-03-30T09:06:03.516Z,13.08
2018-03-30T09:08:30.921Z,12.91
2018-03-30T09:10:58.307Z,13.00
2018-03-30T09:13:25.737Z,12.70
2018-03-30T09:15:53.124Z,12.89
2018-03-30T09:18:20.534Z,12.87
2018-03-30T09:20:47.960Z,13.07
2018-03-30T09:23:16.265Z,13.08
2018-03-30T09:25:44.790Z,12.98
2018-03-30T09:28:12.274Z,12.89
2018-03-30T09:30:39.656Z,13.07
2018-03-30T09:33:07.193Z,12.98
2018-03-30T09:35:34.582Z,13.04
2018-03-30T09:38:01.979Z,13.41
2018-03-30T09:40:29.445Z,13.59
2018-03-30T09:42:56.874Z,13.53
2018-03-30T09:45:24.304Z,13.69
2018-03-30T09:47:51.693Z,13.50
2018-03-30T09:50:19.262Z,13.77
2018-03-30T09:52:46.659Z,13.71
2018-03-30T09:55:14.042Z,13.81
2018-03-30T09:57:41.454Z,13.85
2018-03-30T10:00:08.861Z,14.09
2018-03-30T10:02:38.154Z,14.29
2018-03-30T10:05:06.058Z,14.25
2018-03-30T10:07:33.456Z,14.43
2018-03-30T10:10:00.852Z,14.60
2018-03-30T10:12:28.302Z,14.65
2018-03-30T10:14:55.698Z,14.46
2018-03-30T10:17:23.236Z,14.57
2018-03-30T10:20:03.983Z,14.49
2018-03-30T10:22:42.308Z,14.73
2018-03-30T10:25:10.484Z,14.99
2018-03-30T10:27:37.937Z,14.89
2018-03-30T10:30:05.579Z,15.24
2018-03-30T10:32:33.000Z,15.19
2018-03-30T10:35:00.384Z,15.54
2018-03-30T10:37:27.784Z,15.48
2018-03-30T10:39:55.185Z,15.65
2018-03-30T10:42:22.583Z,15.43
2018-03-30T10:44:50.022Z,16.01
2018-03-30T10:47:17.425Z,16.02
2018-03-30T10:49:44.866Z,16.01
2018-03-30T10:52:12.303Z,16.02
2018-03-30T10:54:39.713Z,16.09
2018-03-30T10:57:07.166Z,16.00
2018-03-30T10:59:36.050Z,16.24
2018-03-30T11:02:06.386Z,16.32
2018-03-30T11:04:33.778Z,16.44
2018-03-30T11:07:01.906Z,16.64
2018-03-30T11:09:29.333Z,16.65
2018-03-30T11:11:56.753Z,16.80
2018-03-30T11:14:24.508Z,16.82
2018-03-30T11:16:52.714Z,17.06
2018-03-30T11:19:20.108Z,17.01
2018-03-30T11:21:47.579Z,17.15
2018-03-30T11:24:14.983Z,17.09
2018-03-30T11:26:42.442Z,17.32
2018-03-30T11:29:10.103Z,17.27
2018-03-30T11:31:37.574Z,17.47
2018-03-30T11:34:04.999Z,17.40
2018-03-30T11:36:32.427Z,17.51
2018-03-30T11:38:59.800Z,17.65
2018-03-30T11:41:27.460Z,17.61
2018-03-30T11:43:55.335Z,17.68
2018-03-30T11:46:27.009Z,17.59
2018-03-30T11:48:55.263Z,17.68
2018-03-30T11:51:22.664Z,17.81
2018-03-30T11:53:50.048Z,17.83
2018-03-30T11:56:17.437Z,17.84
2018-03-30T11:58:46.845Z,17.79
2018-03-30T12:01:14.259Z,17.83
2018-03-30T12:03:43.662Z,17.52
2018-03-30T12:06:11.044Z,17.69
2018-03-30T12:08:38.497Z,17.71
2018-03-30T12:11:05.885Z,17.77
2018-03-30T12:13:33.286Z,17.77
2018-03-30T12:16:00.660Z,17.66
2018-03-30T12:18:28.426Z,17.73
2018-03-30T12:20:55.842Z,17.58
2018-03-30T12:23:23.258Z,17.68
2018-03-30T12:25:50.734Z,17.51
2018-03-30T12:28:18.128Z,17.38
2018-03-30T12:30:45.526Z,17.34
2018-03-30T12:33:14.303Z,17.26
2018-03-30T12:35:43.881Z,17.27
2018-03-30T12:38:14.028Z,17.22
2018-03-30T12:40:41.443Z,17.30
2018-03-30T12:43:09.555Z,17.35
2018-03-30T12:45:37.910Z,17.27
2018-03-30T12:48:05.495Z,17.20
2018-03-30T12:50:32.885Z,17.19
2018-03-30T12:53:01.558Z,17.02
2018-03-30T12:55:28.954Z,17.07
2018-03-30T12:57:56.329Z,17.13
2018-03-30T13:00:23.716Z,17.31
2018-03-30T13:02:51.123Z,17.33
2018-03-30T13:05:18.529Z,17.57
2018-03-30T13:07:46.921Z,17.49
2018-03-30T13:10:15.610Z,17.60
2018-03-30T13:12:42.998Z,17.37
2018-03-30T13:15:10.761Z,17.09
2018-03-30T13:17:38.154Z,17.22
2018-03-30T13:20:05.568Z,17.29
2018-03-30T13:22:32.985Z,17.35
2018-03-30T13:25:00.625Z,17.35
2018-03-30T13:27:28.120Z,17.38
2018-03-30T13:29:56.643Z,17.48
2018-03-30T13:32:24.041Z,17.21
2018-03-30T13:34:52.106Z,17.36
2018-03-30T13:37:19.582Z,17.33
2018-03-30T13:39:48.205Z,16.88
2018-03-30T13:42:15.614Z,16.95
2018-03-30T13:44:43.044Z,16.93
2018-03-30T13:47:11.821Z,16.82
2018-03-30T13:49:39.209Z,16.87
2018-03-30T13:52:18.411Z,16.87
2018-03-30T13:54:48.578Z,16.72
2018-03-30T13:57:23.188Z,16.63
2018-03-30T13:59:52.059Z,16.45
2018-03-30T14:02:28.009Z,16.67
2018-03-30T14:05:10.565Z,16.70
2018-03-30T14:21:04.355Z,16.68
2018-03-30T14:23:44.492Z,16.72
2018-03-30T14:26:16.464Z,16.66
2018-03-30T14:28:44.605Z,16.73
2018-03-30T14:31:16.434Z,16.64
2018-03-30T14:33:45.611Z,16.68
2018-03-30T14:36:13.073Z,16.57
2018-03-30T14:52:12.716Z,16.24
2018-03-30T14:54:45.836Z,16.14
2018-03-30T15:11:05.436Z,16.27
2018-03-30T15:13:39.658Z,16.18
2018-03-30T15:16:15.348Z,16.12
2018-03-30T15:18:48.437Z,16.15
2018-03-30T15:21:18.747Z,16.26
2018-03-30T15:23:52.763Z,16.32
2018-03-30T15:26:24.017Z,16.33
2018-03-30T15:29:03.942Z,16.21
2018-03-30T15:31:31.782Z,16.09
2018-03-30T15:34:02.653Z,16.12
2018-03-30T15:36:32.833Z,16.11
2018-03-30T15:39:00.249Z,16.11
2018-03-30T15:41:28.628Z,16.27
2018-03-30T15:43:56.208Z,16.32
2018-03-30T15:46:31.010Z,16.43
2018-03-30T15:48:58.711Z,16.42
2018-03-30T15:51:29.814Z,16.29
2018-03-30T15:53:56.942Z,16.29
2018-03-30T15:56:28.199Z,16.38
2018-03-30T15:58:58.265Z,16.20
2018-03-30T16:01:26.007Z,16.08
2018-03-30T16:03:54.819Z,16.14
2018-03-30T16:06:24.359Z,16.19
2018-03-30T16:08:51.729Z,16.20
2018-03-30T16:11:30.932Z,16.09
2018-03-30T16:13:58.318Z,16.16
2018-03-30T16:16:25.791Z,16.14
2018-03-30T16:18:56.527Z,16.05
2018-03-30T16:21:25.366Z,16.00
2018-03-30T16:23:53.338Z,15.96
2018-03-30T16:26:20.194Z,15.90
2018-03-30T16:28:49.448Z,15.75
2018-03-30T16:31:17.227Z,15.68
2018-03-30T16:33:44.185Z,15.67
2018-03-30T16:36:11.073Z,15.71
2018-03-30T16:38:37.947Z,15.65
2018-03-30T16:41:04.888Z,15.71
2018-03-30T16:43:32.389Z,15.80
2018-03-30T16:46:03.464Z,15.81
2018-03-30T16:48:31.422Z,15.86
2018-03-30T16:50:58.688Z,15.69
2018-03-30T16:53:26.397Z,15.72
2018-03-30T16:55:53.263Z,15.72
2018-03-30T16:58:20.121Z,15.68
2018-03-30T17:00:49.644Z,15.61
2018-03-30T17:03:17.355Z,15.60
2018-03-30T17:05:44.289Z,15.59
2018-03-30T17:08:13.024Z,15.58
2018-03-30T17:10:40.010Z,15.52
2018-03-30T17:13:06.865Z,15.49
2018-03-30T17:15:33.708Z,15.32
2018-03-30T17:18:00.570Z,15.40
2018-03-30T17:20:27.417Z,15.44
2018-03-30T17:22:54.273Z,15.40
2018-03-30T17:25:21.119Z,15.32
2018-03-30T17:27:48.792Z,15.42
2018-03-30T17:30:16.817Z,15.45
2018-03-30T17:32:43.674Z,15.37
2018-03-30T17:35:10.854Z,15.30
2018-03-30T17:37:38.224Z,15.24
2018-03-30T17:40:05.068Z,15.23
2018-03-30T17:42:31.925Z,15.15
2018-03-30T17:44:58.793Z,15.01
2018-03-30T17:47:25.656Z,15.03
2018-03-30T17:49:52.511Z,14.97
2018-03-30T17:52:19.347Z,15.15
2018-03-30T17:54:46.201Z,15.23
2018-03-30T17:57:13.068Z,15.20
2018-03-30T17:59:39.906Z,15.24
2018-03-30T18:02:06.745Z,15.16
2018-03-30T18:04:33.601Z,15.15
2018-03-30T18:07:00.945Z,14.92
2018-03-30T18:09:27.862Z,14.77
2018-03-30T18:11:55.600Z,14.64
2018-03-30T18:14:22.459Z,14.53
2018-03-30T18:16:49.306Z,14.54
2018-03-30T18:19:16.162Z,14.65
2018-03-30T18:21:43.017Z,14.49
2018-03-30T18:24:10.427Z,14.09
2018-03-30T18:26:37.264Z,14.09
2018-03-30T18:29:04.162Z,14.26
2018-03-30T18:31:31.014Z,14.56
2018-03-30T18:33:57.908Z,14.17
2018-03-30T18:36:24.798Z,13.72
2018-03-30T18:38:51.652Z,13.95
2018-03-30T18:41:22.667Z,13.93
2018-03-30T18:46:32.294Z,13.96
2018-03-30T18:48:59.175Z,13.99
2018-03-30T18:51:26.055Z,14.10
2018-03-30T18:53:56.138Z,13.87
2018-03-30T18:56:23.057Z,13.67
2018-03-30T18:58:51.649Z,13.83
2018-03-30T19:01:18.497Z,13.83
2018-03-30T19:03:45.490Z,13.48
2018-03-30T19:06:12.380Z,13.53
2018-03-30T19:08:39.217Z,13.73
2018-03-30T19:11:06.062Z,14.04
2018-03-30T19:13:33.427Z,13.42
2018-03-30T19:16:00.315Z,13.60
2018-03-30T19:18:27.852Z,13.49
2018-03-30T19:20:54.707Z,13.27
2018-03-30T19:23:21.556Z,13.17
2018-03-30T19:25:48.408Z,13.33
2018-03-30T19:28:15.282Z,13.19
2018-03-30T19:30:42.518Z,13.30
2018-03-30T19:33:10.794Z,13.28
2018-03-30T19:35:37.689Z,13.18
2018-03-30T19:38:05.764Z,13.22
2018-03-30T19:40:32.615Z,13.14
2018-03-30T19:42:59.492Z,13.09
2018-03-30T19:45:26.334Z,13.17
2018-03-30T19:47:53.760Z,13.31
2018-03-30T19:50:20.613Z,13.12
2018-03-30T19:52:47.779Z,13.09
2018-03-30T19:55:14.735Z,13.04
2018-03-30T19:57:42.772Z,12.84
2018-03-30T20:00:09.670Z,13.05
2018-03-30T20:02:36.514Z,12.84
2018-03-30T20:05:03.880Z,12.86
2018-03-30T20:07:30.744Z,12.80
2018-03-30T20:09:58.264Z,12.91
2018-03-30T20:12:25.126Z,12.69
2018-03-30T20:14:51.980Z,12.61
2018-03-30T20:17:19.181Z,12.65
2018-03-30T20:19:46.075Z,12.65
2018-03-30T20:22:14.693Z,12.64
2018-03-30T20:24:41.570Z,12.64
2018-03-30T20:27:08.428Z,12.62
2018-03-30T20:32:29.489Z,12.68
2018-03-30T20:34:58.950Z,12.50
2018-03-30T20:37:25.829Z,12.80
2018-03-30T20:39:52.683Z,12.94
2018-03-30T20:42:19.802Z,12.81
2018-03-30T20:44:46.663Z,12.71
2018-03-30T20:47:13.495Z,12.18
2018-03-30T20:49:40.335Z,12.22
2018-03-30T20:52:07.202Z,12.20
2018-03-30T20:54:34.112Z,12.19
2018-03-30T20:57:01.465Z,12.06
2018-03-30T20:59:28.589Z,12.18
2018-03-30T21:01:55.466Z,12.22
2018-03-30T21:04:22.315Z,12.44
2018-03-30T21:06:49.209Z,12.13
2018-03-30T21:09:16.083Z,12.32
2018-03-30T21:11:45.054Z,12.36
2018-03-30T21:14:11.954Z,12.40
2018-03-30T21:16:38.820Z,12.54
2018-03-30T21:19:05.725Z,12.91
2018-03-30T21:21:32.636Z,12.70
2018-03-30T21:23:59.544Z,12.38
2018-03-30T21:26:26.389Z,12.71
2018-03-30T21:28:53.311Z,12.23
2018-03-30T21:31:20.172Z,12.28
2018-03-30T21:33:47.793Z,12.36
2018-03-30T21:36:14.712Z,12.32
2018-03-30T21:38:41.582Z,12.21
2018-03-30T21:41:08.454Z,12.40
2018-03-30T21:43:35.306Z,12.42
2018-03-30T21:46:02.170Z,12.47
2018-03-30T21:48:29.095Z,12.60
2018-03-30T21:50:55.953Z,12.52
2018-03-30T21:53:22.825Z,12.52
2018-03-30T21:55:49.678Z,12.86
2018-03-30T21:58:16.622Z,12.61
2018-03-30T22:00:44.256Z,12.21
2018-03-30T22:03:11.111Z,12.28
2018-03-30T22:05:37.986Z,12.17
2018-03-30T22:08:04.861Z,12.02
2018-03-30T22:10:31.726Z,11.99
2018-03-30T22:12:58.580Z,12.17
2018-03-30T22:15:25.445Z,12.41
2018-03-30T22:17:52.291Z,12.29
2018-03-30T22:20:19.188Z,12.39
2018-03-30T22:22:46.033Z,12.41
2018-03-30T22:25:13.764Z,12.10
2018-03-30T22:27:40.607Z,12.46
2018-03-30T22:30:07.464Z,11.98
2018-03-30T22:32:34.681Z,12.10
2018-03-30T22:35:01.605Z,12.14
2018-03-30T22:37:28.439Z,12.05
2018-03-30T22:39:55.291Z,11.95
2018-03-30T22:42:22.161Z,11.91
2018-03-30T22:44:50.721Z,11.97
2018-03-30T22:47:17.830Z,12.07
2018-03-30T22:49:45.094Z,12.36
2018-03-30T22:52:12.040Z,11.99
2018-03-30T22:54:39.611Z,12.02
2018-03-30T22:57:06.520Z,11.83
2018-03-30T22:59:33.387Z,12.07
2018-03-30T23:02:00.230Z,12.10
2018-03-30T23:04:28.825Z,12.05
2018-03-30T23:06:55.685Z,11.97
2018-03-30T23:09:22.570Z,11.88
2018-03-30T23:11:49.908Z,12.10
2018-03-30T23:14:16.825Z,12.08
2018-03-30T23:16:43.669Z,12.08
2018-03-30T23:19:12.832Z,12.17
2018-03-30T23:21:41.236Z,11.55
2018-03-30T23:24:08.109Z,11.74
2018-03-30T23:26:34.990Z,12.03
2018-03-30T23:29:01.849Z,12.34
2018-03-30T23:31:28.698Z,11.80
2018-03-30T23:33:55.568Z,11.43
2018-03-30T23:36:22.419Z,11.23
2018-03-30T23:38:49.282Z,11.19
2018-03-30T23:41:16.593Z,11.33
2018-03-30T23:43:44.688Z,11.26
2018-03-30T23:46:12.629Z,11.44
2018-03-30T23:48:39.485Z,11.36
2018-03-30T23:51:06.348Z,11.53
2018-03-30T23:53:34.025Z,11.49
2018-03-30T23:56:00.897Z,11.47
2018-03-30T23:58:27.768Z,11.12
